sensor_id;sensor_type;location;lat;lon;timestamp;temperature;humidity
24802;DHT22;12898;50.520;12.152;2023-04-03T00:01:15;1.60;99.90
24802;DHT22;12898;50.520;12.152;2023-04-03T00:03:41;1.60;99.90
24802;DHT22;12898;50.520;12.152;2023-04-03T00:06:07;1.60;99.90
24802;DHT22;12898;50.520;12.152;2023-04-03T00:08:35;1.60;99.90
24802;DHT22;12898;50.520;12.152;2023-04-03T00:11:03;1.60;99.90
24802;DHT22;12898;50.520;12.152;2023-04-03T00:13:29;1.60;99.90
24802;DHT22;12898;50.520;12.152;2023-04-03T00:15:55;1.60;99.90
24802;DHT22;12898;50.520;12.152;2023-04-03T00:18:21;1.60;99.90
24802;DHT22;12898;50.520;12.152;2023-04-03T00:20:47;1.60;99.90
24802;DHT22;12898;50.520;12.152;2023-04-03T00:23:13;1.60;99.90
24802;DHT22;12898;50.520;12.152;2023-04-03T00:25:39;1.60;99.90
24802;DHT22;12898;50.520;12.152;2023-04-03T00:28:05;1.60;99.90
24802;DHT22;12898;50.520;12.152;2023-04-03T00:30:31;1.60;99.90
24802;DHT22;12898;50.520;12.152;2023-04-03T00:32:57;1.60;99.90
24802;DHT22;12898;50.520;12.152;2023-04-03T00:35:24;1.60;99.90
24802;DHT22;12898;50.520;12.152;2023-04-03T00:37:54;1.60;99.90
24802;DHT22;12898;50.520;12.152;2023-04-03T00:40:21;1.60;99.90
24802;DHT22;12898;50.520;12.152;2023-04-03T00:42:51;1.60;99.90
24802;DHT22;12898;50.520;12.152;2023-04-03T00:45:27;1.60;99.90
24802;DHT22;12898;50.520;12.152;2023-04-03T00:47:57;1.60;99.90
24802;DHT22;12898;50.520;12.152;2023-04-03T00:50:26;1.60;99.90
24802;DHT22;12898;50.520;12.152;2023-04-03T00:52:53;1.60;99.90
24802;DHT22;12898;50.520;12.152;2023-04-03T00:55:19;1.60;99.90
24802;DHT22;12898;50.520;12.152;2023-04-03T00:57:46;1.60;99.90
24802;DHT22;12898;50.520;12.152;2023-04-03T01:00:14;1.60;99.90
24802;DHT22;12898;50.520;12.152;2023-04-03T01:02:42;1.60;99.90
24802;DHT22;12898;50.520;12.152;2023-04-03T01:05:08;1.50;99.90
24802;DHT22;12898;50.520;12.152;2023-04-03T01:07:35;1.50;99.90
24802;DHT22;12898;50.520;12.152;2023-04-03T01:10:07;1.50;99.90
24802;DHT22;12898;50.520;12.152;2023-04-03T01:12:41;1.50;99.90
24802;DHT22;12898;50.520;12.152;2023-04-03T01:15:18;1.50;99.90
24802;DHT22;12898;50.520;12.152;2023-04-03T01:23:12;1.50;99.90
24802;DHT22;12898;50.520;12.152;2023-04-03T01:26:00;1.50;99.90
24802;DHT22;12898;50.520;12.152;2023-04-03T01:28:34;1.50;99.90
24802;DHT22;12898;50.520;12.152;2023-04-03T01:33:39;1.40;99.90
24802;DHT22;12898;50.520;12.152;2023-04-03T01:36:05;1.40;99.90
24802;DHT22;12898;50.520;12.152;2023-04-03T01:38:31;1.40;99.90
24802;DHT22;12898;50.520;12.152;2023-04-03T01:40:57;1.40;99.90
24802;DHT22;12898;50.520;12.152;2023-04-03T01:43:23;1.30;99.90
24802;DHT22;12898;50.520;12.152;2023-04-03T01:45:49;1.30;99.90
24802;DHT22;12898;50.520;12.152;2023-04-03T01:48:15;1.30;99.90
24802;DHT22;12898;50.520;12.152;2023-04-03T01:50:41;1.20;99.90
24802;DHT22;12898;50.520;12.152;2023-04-03T01:53:07;1.20;99.90
24802;DHT22;12898;50.520;12.152;2023-04-03T01:55:33;1.20;99.90
24802;DHT22;12898;50.520;12.152;2023-04-03T01:57:59;1.20;99.90
24802;DHT22;12898;50.520;12.152;2023-04-03T02:00:25;1.10;99.90
24802;DHT22;12898;50.520;12.152;2023-04-03T02:02:52;1.10;99.90
24802;DHT22;12898;50.520;12.152;2023-04-03T02:05:18;1.10;99.90
24802;DHT22;12898;50.520;12.152;2023-04-03T02:07:43;1.00;99.90
24802;DHT22;12898;50.520;12.152;2023-04-03T02:10:10;1.00;99.90
24802;DHT22;12898;50.520;12.152;2023-04-03T02:12:36;1.00;99.90
24802;DHT22;12898;50.520;12.152;2023-04-03T02:15:01;1.00;99.90
24802;DHT22;12898;50.520;12.152;2023-04-03T02:17:27;1.00;99.90
24802;DHT22;12898;50.520;12.152;2023-04-03T02:19:53;0.90;99.90
24802;DHT22;12898;50.520;12.152;2023-04-03T02:22:18;0.90;99.90
24802;DHT22;12898;50.520;12.152;2023-04-03T02:24:45;0.90;99.90
24802;DHT22;12898;50.520;12.152;2023-04-03T02:27:11;0.90;99.90
24802;DHT22;12898;50.520;12.152;2023-04-03T02:29:37;0.90;99.90
24802;DHT22;12898;50.520;12.152;2023-04-03T02:32:02;0.90;99.90
24802;DHT22;12898;50.520;12.152;2023-04-03T02:34:28;0.80;99.90
24802;DHT22;12898;50.520;12.152;2023-04-03T02:36:54;0.80;99.90
24802;DHT22;12898;50.520;12.152;2023-04-03T02:39:21;0.80;99.90
24802;DHT22;12898;50.520;12.152;2023-04-03T02:41:46;0.80;99.90
24802;DHT22;12898;50.520;12.152;2023-04-03T02:44:12;0.80;99.90
24802;DHT22;12898;50.520;12.152;2023-04-03T02:46:38;0.80;99.90
24802;DHT22;12898;50.520;12.152;2023-04-03T02:49:04;0.80;99.90
24802;DHT22;12898;50.520;12.152;2023-04-03T02:51:30;0.80;99.90
24802;DHT22;12898;50.520;12.152;2023-04-03T02:53:56;0.80;99.90
24802;DHT22;12898;50.520;12.152;2023-04-03T02:56:21;0.80;99.90
24802;DHT22;12898;50.520;12.152;2023-04-03T02:58:47;0.80;99.90
24802;DHT22;12898;50.520;12.152;2023-04-03T03:01:13;0.70;99.90
24802;DHT22;12898;50.520;12.152;2023-04-03T03:03:39;0.70;99.90
24802;DHT22;12898;50.520;12.152;2023-04-03T03:06:10;0.70;99.90
24802;DHT22;12898;50.520;12.152;2023-04-03T03:08:37;0.70;99.90
24802;DHT22;12898;50.520;12.152;2023-04-03T03:11:04;0.70;99.90
24802;DHT22;12898;50.520;12.152;2023-04-03T03:13:31;0.70;99.90
24802;DHT22;12898;50.520;12.152;2023-04-03T03:15:57;0.70;99.90
24802;DHT22;12898;50.520;12.152;2023-04-03T03:18:23;0.70;99.90
24802;DHT22;12898;50.520;12.152;2023-04-03T03:21:07;0.70;99.90
24802;DHT22;12898;50.520;12.152;2023-04-03T03:23:34;0.70;99.90
24802;DHT22;12898;50.520;12.152;2023-04-03T03:26:04;0.70;99.90
24802;DHT22;12898;50.520;12.152;2023-04-03T03:28:32;0.60;99.90
24802;DHT22;12898;50.520;12.152;2023-04-03T03:30:58;0.60;99.90
24802;DHT22;12898;50.520;12.152;2023-04-03T03:33:25;0.60;99.90
24802;DHT22;12898;50.520;12.152;2023-04-03T03:35:51;0.60;99.90
24802;DHT22;12898;50.520;12.152;2023-04-03T03:38:18;0.50;99.90
24802;DHT22;12898;50.520;12.152;2023-04-03T03:40:43;0.60;99.90
24802;DHT22;12898;50.520;12.152;2023-04-03T03:43:09;0.50;99.90
24802;DHT22;12898;50.520;12.152;2023-04-03T03:45:35;0.50;99.90
24802;DHT22;12898;50.520;12.152;2023-04-03T03:48:02;0.50;99.90
24802;DHT22;12898;50.520;12.152;2023-04-03T03:50:28;0.50;99.90
24802;DHT22;12898;50.520;12.152;2023-04-03T03:52:54;0.40;99.90
24802;DHT22;12898;50.520;12.152;2023-04-03T03:55:19;0.50;99.90
24802;DHT22;12898;50.520;12.152;2023-04-03T03:57:45;0.40;99.90
24802;DHT22;12898;50.520;12.152;2023-04-03T04:00:11;0.40;99.90
24802;DHT22;12898;50.520;12.152;2023-04-03T04:02:37;0.40;99.90
24802;DHT22;12898;50.520;12.152;2023-04-03T04:05:03;0.40;99.90
24802;DHT22;12898;50.520;12.152;2023-04-03T04:07:29;0.30;99.90
24802;DHT22;12898;50.520;12.152;2023-04-03T04:09:55;0.30;99.90
24802;DHT22;12898;50.520;12.152;2023-04-03T04:12:21;0.30;99.90
24802;DHT22;12898;50.520;12.152;2023-04-03T04:14:46;0.30;99.90
24802;DHT22;12898;50.520;12.152;2023-04-03T04:17:13;0.20;99.90
24802;DHT22;12898;50.520;12.152;2023-04-03T04:19:39;0.20;99.90
24802;DHT22;12898;50.520;12.152;2023-04-03T04:22:05;0.20;99.90
24802;DHT22;12898;50.520;12.152;2023-04-03T04:24:31;0.20;99.90
24802;DHT22;12898;50.520;12.152;2023-04-03T04:26:57;0.20;99.90
24802;DHT22;12898;50.520;12.152;2023-04-03T04:29:22;0.20;99.90
24802;DHT22;12898;50.520;12.152;2023-04-03T04:31:48;0.20;99.90
24802;DHT22;12898;50.520;12.152;2023-04-03T04:34:14;0.10;99.90
24802;DHT22;12898;50.520;12.152;2023-04-03T04:36:40;0.10;99.90
24802;DHT22;12898;50.520;12.152;2023-04-03T04:39:06;0.20;99.90
24802;DHT22;12898;50.520;12.152;2023-04-03T04:41:31;0.10;99.90
24802;DHT22;12898;50.520;12.152;2023-04-03T04:43:57;0.20;99.90
24802;DHT22;12898;50.520;12.152;2023-04-03T04:46:23;0.10;99.90
24802;DHT22;12898;50.520;12.152;2023-04-03T04:48:49;0.10;99.90
24802;DHT22;12898;50.520;12.152;2023-04-03T04:51:15;0.10;99.90
24802;DHT22;12898;50.520;12.152;2023-04-03T04:53:41;0.10;99.90
24802;DHT22;12898;50.520;12.152;2023-04-03T04:56:08;0.10;99.90
24802;DHT22;12898;50.520;12.152;2023-04-03T04:58:34;0.10;99.90
24802;DHT22;12898;50.520;12.152;2023-04-03T05:01:07;0.10;99.90
24802;DHT22;12898;50.520;12.152;2023-04-03T05:03:34;0.10;99.90
24802;DHT22;12898;50.520;12.152;2023-04-03T05:06:00;0.00;99.90
24802;DHT22;12898;50.520;12.152;2023-04-03T05:08:26;0.00;99.90
24802;DHT22;12898;50.520;12.152;2023-04-03T05:10:51;0.00;99.90
24802;DHT22;12898;50.520;12.152;2023-04-03T05:13:18;0.10;99.90
24802;DHT22;12898;50.520;12.152;2023-04-03T05:15:46;0.10;99.90
24802;DHT22;12898;50.520;12.152;2023-04-03T05:18:12;0.10;99.90
24802;DHT22;12898;50.520;12.152;2023-04-03T05:20:37;0.10;99.90
24802;DHT22;12898;50.520;12.152;2023-04-03T05:23:03;0.10;99.90
24802;DHT22;12898;50.520;12.152;2023-04-03T05:25:29;0.10;99.90
24802;DHT22;12898;50.520;12.152;2023-04-03T05:27:55;0.10;99.90
24802;DHT22;12898;50.520;12.152;2023-04-03T05:30:21;0.10;99.90
24802;DHT22;12898;50.520;12.152;2023-04-03T05:32:47;0.20;99.90
24802;DHT22;12898;50.520;12.152;2023-04-03T05:35:13;0.20;99.90
24802;DHT22;12898;50.520;12.152;2023-04-03T05:37:38;0.20;99.90
24802;DHT22;12898;50.520;12.152;2023-04-03T05:40:05;0.20;99.90
24802;DHT22;12898;50.520;12.152;2023-04-03T05:42:32;0.20;99.90
24802;DHT22;12898;50.520;12.152;2023-04-03T05:44:58;0.20;99.90
24802;DHT22;12898;50.520;12.152;2023-04-03T05:47:24;0.30;99.90
24802;DHT22;12898;50.520;12.152;2023-04-03T05:49:49;0.20;99.90
24802;DHT22;12898;50.520;12.152;2023-04-03T05:52:28;0.30;99.90
24802;DHT22;12898;50.520;12.152;2023-04-03T05:54:55;0.30;99.90
24802;DHT22;12898;50.520;12.152;2023-04-03T05:57:21;0.40;99.90
24802;DHT22;12898;50.520;12.152;2023-04-03T05:59:47;0.50;99.90
24802;DHT22;12898;50.520;12.152;2023-04-03T06:02:16;0.50;99.90
24802;DHT22;12898;50.520;12.152;2023-04-03T06:04:44;0.60;99.90
24802;DHT22;12898;50.520;12.152;2023-04-03T06:07:15;0.70;99.90
24802;DHT22;12898;50.520;12.152;2023-04-03T06:09:47;0.80;99.90
24802;DHT22;12898;50.520;12.152;2023-04-03T06:12:13;0.80;99.90
24802;DHT22;12898;50.520;12.152;2023-04-03T06:14:39;0.90;99.90
24802;DHT22;12898;50.520;12.152;2023-04-03T06:17:05;0.90;99.90
24802;DHT22;12898;50.520;12.152;2023-04-03T06:19:31;0.80;99.90
24802;DHT22;12898;50.520;12.152;2023-04-03T06:21:57;0.80;99.90
24802;DHT22;12898;50.520;12.152;2023-04-03T06:24:23;0.80;99.90
24802;DHT22;12898;50.520;12.152;2023-04-03T06:26:50;0.90;99.90
24802;DHT22;12898;50.520;12.152;2023-04-03T06:29:18;0.90;99.90
24802;DHT22;12898;50.520;12.152;2023-04-03T06:31:45;0.90;99.90
24802;DHT22;12898;50.520;12.152;2023-04-03T06:34:12;1.00;99.90
24802;DHT22;12898;50.520;12.152;2023-04-03T06:36:38;1.00;99.90
24802;DHT22;12898;50.520;12.152;2023-04-03T06:39:04;1.10;99.90
24802;DHT22;12898;50.520;12.152;2023-04-03T06:41:30;1.10;99.90
24802;DHT22;12898;50.520;12.152;2023-04-03T06:43:56;1.10;99.90
24802;DHT22;12898;50.520;12.152;2023-04-03T06:46:24;1.10;99.90
24802;DHT22;12898;50.520;12.152;2023-04-03T06:48:51;1.10;99.90
24802;DHT22;12898;50.520;12.152;2023-04-03T06:51:26;1.10;99.90
24802;DHT22;12898;50.520;12.152;2023-04-03T06:53:55;1.20;99.90
24802;DHT22;12898;50.520;12.152;2023-04-03T06:56:22;1.30;99.90
24802;DHT22;12898;50.520;12.152;2023-04-03T06:58:49;1.40;99.90
24802;DHT22;12898;50.520;12.152;2023-04-03T07:01:16;1.50;99.90
24802;DHT22;12898;50.520;12.152;2023-04-03T07:03:45;1.60;99.90
24802;DHT22;12898;50.520;12.152;2023-04-03T07:06:14;1.60;99.90
24802;DHT22;12898;50.520;12.152;2023-04-03T07:08:40;1.70;99.90
24802;DHT22;12898;50.520;12.152;2023-04-03T07:11:07;1.80;99.90
24802;DHT22;12898;50.520;12.152;2023-04-03T07:13:33;1.90;99.90
24802;DHT22;12898;50.520;12.152;2023-04-03T07:15:59;2.00;99.90
24802;DHT22;12898;50.520;12.152;2023-04-03T07:18:25;2.10;99.90
24802;DHT22;12898;50.520;12.152;2023-04-03T07:20:51;2.10;99.90
24802;DHT22;12898;50.520;12.152;2023-04-03T07:23:18;2.20;99.90
24802;DHT22;12898;50.520;12.152;2023-04-03T07:25:45;2.20;99.90
24802;DHT22;12898;50.520;12.152;2023-04-03T07:28:11;2.30;99.90
24802;DHT22;12898;50.520;12.152;2023-04-03T07:30:51;2.40;99.90
24802;DHT22;12898;50.520;12.152;2023-04-03T07:33:19;2.50;99.90
24802;DHT22;12898;50.520;12.152;2023-04-03T07:35:46;2.50;99.90
24802;DHT22;12898;50.520;12.152;2023-04-03T07:38:12;2.60;99.90
24802;DHT22;12898;50.520;12.152;2023-04-03T07:40:39;2.80;99.90
24802;DHT22;12898;50.520;12.152;2023-04-03T07:43:06;3.00;99.90
24802;DHT22;12898;50.520;12.152;2023-04-03T07:45:34;3.20;99.90
24802;DHT22;12898;50.520;12.152;2023-04-03T07:48:00;3.40;99.90
24802;DHT22;12898;50.520;12.152;2023-04-03T07:50:26;3.60;99.90
24802;DHT22;12898;50.520;12.152;2023-04-03T07:52:52;3.90;99.90
24802;DHT22;12898;50.520;12.152;2023-04-03T07:55:19;4.10;99.90
24802;DHT22;12898;50.520;12.152;2023-04-03T07:57:45;4.10;99.90
24802;DHT22;12898;50.520;12.152;2023-04-03T08:00:12;4.00;99.90
24802;DHT22;12898;50.520;12.152;2023-04-03T08:02:38;3.70;99.90
24802;DHT22;12898;50.520;12.152;2023-04-03T08:05:04;3.60;99.90
24802;DHT22;12898;50.520;12.152;2023-04-03T08:07:30;3.40;99.90
24802;DHT22;12898;50.520;12.152;2023-04-03T08:09:56;3.40;99.90
24802;DHT22;12898;50.520;12.152;2023-04-03T08:12:22;3.70;99.90
24802;DHT22;12898;50.520;12.152;2023-04-03T08:14:48;3.90;99.90
24802;DHT22;12898;50.520;12.152;2023-04-03T08:17:13;4.30;99.90
24802;DHT22;12898;50.520;12.152;2023-04-03T08:19:40;4.50;99.90
24802;DHT22;12898;50.520;12.152;2023-04-03T08:22:05;4.60;99.90
24802;DHT22;12898;50.520;12.152;2023-04-03T08:24:32;4.70;99.90
24802;DHT22;12898;50.520;12.152;2023-04-03T08:26:59;4.60;99.90
24802;DHT22;12898;50.520;12.152;2023-04-03T08:29:25;4.60;99.90
24802;DHT22;12898;50.520;12.152;2023-04-03T08:31:51;4.70;99.90
24802;DHT22;12898;50.520;12.152;2023-04-03T08:34:17;5.00;99.90
24802;DHT22;12898;50.520;12.152;2023-04-03T08:36:44;4.90;99.90
24802;DHT22;12898;50.520;12.152;2023-04-03T08:39:10;5.20;99.90
24802;DHT22;12898;50.520;12.152;2023-04-03T08:41:39;5.40;99.90
24802;DHT22;12898;50.520;12.152;2023-04-03T08:45:08;5.70;99.90
24802;DHT22;12898;50.520;12.152;2023-04-03T08:47:45;5.90;99.90
24802;DHT22;12898;50.520;12.152;2023-04-03T08:50:18;6.50;99.60
24802;DHT22;12898;50.520;12.152;2023-04-03T08:52:47;7.00;98.50
24802;DHT22;12898;50.520;12.152;2023-04-03T08:55:33;7.10;94.00
24802;DHT22;12898;50.520;12.152;2023-04-03T08:58:09;6.80;91.10
24802;DHT22;12898;50.520;12.152;2023-04-03T09:00:51;6.70;93.20
24802;DHT22;12898;50.520;12.152;2023-04-03T09:03:21;6.80;93.60
24802;DHT22;12898;50.520;12.152;2023-04-03T09:06:07;6.90;92.70
24802;DHT22;12898;50.520;12.152;2023-04-03T09:08:51;7.20;93.30
24802;DHT22;12898;50.520;12.152;2023-04-03T09:11:25;7.60;90.90
24802;DHT22;12898;50.520;12.152;2023-04-03T09:16:54;8.20;90.40
24802;DHT22;12898;50.520;12.152;2023-04-03T09:24:40;9.00;88.20
24802;DHT22;12898;50.520;12.152;2023-04-03T09:27:10;8.30;81.30
24802;DHT22;12898;50.520;12.152;2023-04-03T09:29:40;7.40;82.50
24802;DHT22;12898;50.520;12.152;2023-04-03T09:32:50;6.60;85.30
24802;DHT22;12898;50.520;12.152;2023-04-03T09:35:27;6.10;89.10
24802;DHT22;12898;50.520;12.152;2023-04-03T09:40:41;5.90;92.00
24802;DHT22;12898;50.520;12.152;2023-04-03T09:45:43;5.80;92.70
24802;DHT22;12898;50.520;12.152;2023-04-03T09:53:30;6.30;93.10
24802;DHT22;12898;50.520;12.152;2023-04-03T09:59:28;7.60;88.40
24802;DHT22;12898;50.520;12.152;2023-04-03T10:01:31;7.90;85.90
24802;DHT22;12898;50.520;12.152;2023-04-03T10:04:17;8.20;86.80
24802;DHT22;12898;50.520;12.152;2023-04-03T10:06:47;8.40;79.30
24802;DHT22;12898;50.520;12.152;2023-04-03T10:12:11;8.50;74.70
24802;DHT22;12898;50.520;12.152;2023-04-03T10:23:18;8.90;74.90
24802;DHT22;12898;50.520;12.152;2023-04-03T10:28:48;9.50;74.80
24802;DHT22;12898;50.520;12.152;2023-04-03T10:31:33;9.60;74.80
24802;DHT22;12898;50.520;12.152;2023-04-03T10:34:32;10.00;72.80
24802;DHT22;12898;50.520;12.152;2023-04-03T10:37:22;10.20;71.30
24802;DHT22;12898;50.520;12.152;2023-04-03T10:40:09;9.60;70.80
24802;DHT22;12898;50.520;12.152;2023-04-03T10:43:06;9.40;71.60
24802;DHT22;12898;50.520;12.152;2023-04-03T10:48:24;9.50;70.90
24802;DHT22;12898;50.520;12.152;2023-04-03T10:53:56;8.80;72.90
24802;DHT22;12898;50.520;12.152;2023-04-03T10:56:56;8.80;76.70
24802;DHT22;12898;50.520;12.152;2023-04-03T10:59:31;8.80;75.70
24802;DHT22;12898;50.520;12.152;2023-04-03T11:02:07;8.40;74.20
24802;DHT22;12898;50.520;12.152;2023-04-03T11:04:42;7.90;76.30
24802;DHT22;12898;50.520;12.152;2023-04-03T11:07:22;7.40;77.50
24802;DHT22;12898;50.520;12.152;2023-04-03T11:09:54;7.00;80.10
24802;DHT22;12898;50.520;12.152;2023-04-03T11:12:52;6.90;81.60
24802;DHT22;12898;50.520;12.152;2023-04-03T11:15:19;7.60;84.00
24802;DHT22;12898;50.520;12.152;2023-04-03T11:17:58;7.70;78.90
24802;DHT22;12898;50.520;12.152;2023-04-03T11:20:30;7.90;77.10
24802;DHT22;12898;50.520;12.152;2023-04-03T11:23:05;8.30;78.10
24802;DHT22;12898;50.520;12.152;2023-04-03T11:25:36;8.70;73.40
24802;DHT22;12898;50.520;12.152;2023-04-03T11:28:05;9.10;71.90
24802;DHT22;12898;50.520;12.152;2023-04-03T11:34:31;9.80;71.70
24802;DHT22;12898;50.520;12.152;2023-04-03T11:36:56;10.10;69.50
24802;DHT22;12898;50.520;12.152;2023-04-03T11:39:30;9.80;70.10
24802;DHT22;12898;50.520;12.152;2023-04-03T11:44:44;9.20;70.00
24802;DHT22;12898;50.520;12.152;2023-04-03T11:47:11;9.60;67.20
24802;DHT22;12898;50.520;12.152;2023-04-03T11:50:00;9.80;67.70
24802;DHT22;12898;50.520;12.152;2023-04-03T12:13:42;9.20;71.50
24802;DHT22;12898;50.520;12.152;2023-04-03T12:16:32;9.60;71.60
24802;DHT22;12898;50.520;12.152;2023-04-03T12:35:24;11.20;61.00
24802;DHT22;12898;50.520;12.152;2023-04-03T12:41:28;10.10;63.80
24802;DHT22;12898;50.520;12.152;2023-04-03T12:44:24;9.60;65.50
24802;DHT22;12898;50.520;12.152;2023-04-03T12:47:32;9.10;67.20
24802;DHT22;12898;50.520;12.152;2023-04-03T12:50:13;8.60;67.90
24802;DHT22;12898;50.520;12.152;2023-04-03T12:53:10;8.70;68.90
24802;DHT22;12898;50.520;12.152;2023-04-03T12:55:38;8.40;68.00
24802;DHT22;12898;50.520;12.152;2023-04-03T12:58:28;8.20;68.10
24802;DHT22;12898;50.520;12.152;2023-04-03T13:01:14;8.10;66.10
24802;DHT22;12898;50.520;12.152;2023-04-03T13:03:45;8.80;71.20
24802;DHT22;12898;50.520;12.152;2023-04-03T13:06:25;9.40;67.10
24802;DHT22;12898;50.520;12.152;2023-04-03T13:08:55;9.40;64.40
24802;DHT22;12898;50.520;12.152;2023-04-03T13:11:26;9.10;64.00
24802;DHT22;12898;50.520;12.152;2023-04-03T13:13:57;8.60;64.90
24802;DHT22;12898;50.520;12.152;2023-04-03T13:16:24;8.40;67.50
24802;DHT22;12898;50.520;12.152;2023-04-03T13:18:52;8.20;68.50
24802;DHT22;12898;50.520;12.152;2023-04-03T13:21:22;7.90;65.70
24802;DHT22;12898;50.520;12.152;2023-04-03T13:23:52;7.80;67.60
24802;DHT22;12898;50.520;12.152;2023-04-03T13:26:26;7.80;69.40
24802;DHT22;12898;50.520;12.152;2023-04-03T13:28:57;7.80;69.50
24802;DHT22;12898;50.520;12.152;2023-04-03T13:31:28;7.60;66.80
24802;DHT22;12898;50.520;12.152;2023-04-03T13:33:57;7.70;69.80
24802;DHT22;12898;50.520;12.152;2023-04-03T13:36:40;8.50;69.70
24802;DHT22;12898;50.520;12.152;2023-04-03T13:41:43;10.00;62.30
24802;DHT22;12898;50.520;12.152;2023-04-03T13:46:58;9.80;62.40
24802;DHT22;12898;50.520;12.152;2023-04-03T13:52:27;8.60;61.50
24802;DHT22;12898;50.520;12.152;2023-04-03T13:54:59;7.90;65.10
24802;DHT22;12898;50.520;12.152;2023-04-03T13:57:27;8.10;66.10
24802;DHT22;12898;50.520;12.152;2023-04-03T13:59:53;8.60;69.60
24802;DHT22;12898;50.520;12.152;2023-04-03T14:02:39;8.80;66.50
24802;DHT22;12898;50.520;12.152;2023-04-03T14:05:05;8.60;67.10
24802;DHT22;12898;50.520;12.152;2023-04-03T14:07:33;8.20;67.10
24802;DHT22;12898;50.520;12.152;2023-04-03T14:09:59;7.90;65.80
24802;DHT22;12898;50.520;12.152;2023-04-03T14:12:33;7.50;69.40
24802;DHT22;12898;50.520;12.152;2023-04-03T14:15:04;7.30;70.10
24802;DHT22;12898;50.520;12.152;2023-04-03T14:17:33;7.70;72.00
24802;DHT22;12898;50.520;12.152;2023-04-03T14:19:59;8.50;71.80
24802;DHT22;12898;50.520;12.152;2023-04-03T14:22:29;8.60;65.50
24802;DHT22;12898;50.520;12.152;2023-04-03T14:24:56;8.40;66.80
24802;DHT22;12898;50.520;12.152;2023-04-03T14:27:25;8.10;67.90
24802;DHT22;12898;50.520;12.152;2023-04-03T14:29:53;8.20;67.90
24802;DHT22;12898;50.520;12.152;2023-04-03T14:32:21;8.70;68.30
24802;DHT22;12898;50.520;12.152;2023-04-03T14:34:48;9.20;64.30
24802;DHT22;12898;50.520;12.152;2023-04-03T14:37:21;9.40;65.30
24802;DHT22;12898;50.520;12.152;2023-04-03T14:39:49;9.10;62.70
24802;DHT22;12898;50.520;12.152;2023-04-03T14:42:34;8.70;60.30
24802;DHT22;12898;50.520;12.152;2023-04-03T14:45:05;8.20;64.40
24802;DHT22;12898;50.520;12.152;2023-04-03T14:47:39;7.70;68.20
24802;DHT22;12898;50.520;12.152;2023-04-03T14:50:12;7.50;66.90
24802;DHT22;12898;50.520;12.152;2023-04-03T14:52:40;7.40;71.20
24802;DHT22;12898;50.520;12.152;2023-04-03T14:55:07;7.30;69.70
24802;DHT22;12898;50.520;12.152;2023-04-03T14:57:34;7.40;69.60
24802;DHT22;12898;50.520;12.152;2023-04-03T15:00:00;7.30;69.80
24802;DHT22;12898;50.520;12.152;2023-04-03T15:02:31;7.10;67.10
24802;DHT22;12898;50.520;12.152;2023-04-03T15:04:59;6.90;68.20
24802;DHT22;12898;50.520;12.152;2023-04-03T15:07:27;6.70;70.70
24802;DHT22;12898;50.520;12.152;2023-04-03T15:09:54;6.50;69.10
24802;DHT22;12898;50.520;12.152;2023-04-03T15:12:22;6.40;71.80
24802;DHT22;12898;50.520;12.152;2023-04-03T15:14:49;6.40;74.40
24802;DHT22;12898;50.520;12.152;2023-04-03T15:17:17;6.30;73.20
24802;DHT22;12898;50.520;12.152;2023-04-03T15:19:44;6.20;70.40
24802;DHT22;12898;50.520;12.152;2023-04-03T15:22:18;6.10;72.20
24802;DHT22;12898;50.520;12.152;2023-04-03T15:24:45;6.00;74.60
24802;DHT22;12898;50.520;12.152;2023-04-03T15:27:12;5.90;71.00
24802;DHT22;12898;50.520;12.152;2023-04-03T15:29:40;5.80;72.10
24802;DHT22;12898;50.520;12.152;2023-04-03T15:32:07;5.70;73.50
24802;DHT22;12898;50.520;12.152;2023-04-03T15:34:34;5.60;73.50
24802;DHT22;12898;50.520;12.152;2023-04-03T15:37:00;5.50;74.30
24802;DHT22;12898;50.520;12.152;2023-04-03T15:39:26;5.40;79.10
24802;DHT22;12898;50.520;12.152;2023-04-03T15:41:52;5.20;75.70
24802;DHT22;12898;50.520;12.152;2023-04-03T15:44:19;5.10;76.20
24802;DHT22;12898;50.520;12.152;2023-04-03T15:46:45;5.00;74.70
24802;DHT22;12898;50.520;12.152;2023-04-03T15:49:12;5.00;76.60
24802;DHT22;12898;50.520;12.152;2023-04-03T15:51:38;5.00;78.40
24802;DHT22;12898;50.520;12.152;2023-04-03T15:54:04;5.00;79.30
24802;DHT22;12898;50.520;12.152;2023-04-03T15:56:29;5.00;76.50
24802;DHT22;12898;50.520;12.152;2023-04-03T15:58:55;4.90;76.20
24802;DHT22;12898;50.520;12.152;2023-04-03T16:01:21;4.80;77.00
24802;DHT22;12898;50.520;12.152;2023-04-03T16:03:47;4.60;77.80
24802;DHT22;12898;50.520;12.152;2023-04-03T16:06:14;4.40;80.80
24802;DHT22;12898;50.520;12.152;2023-04-03T16:08:41;4.40;83.10
24802;DHT22;12898;50.520;12.152;2023-04-03T16:11:08;4.40;82.90
24802;DHT22;12898;50.520;12.152;2023-04-03T16:13:34;4.30;86.10
24802;DHT22;12898;50.520;12.152;2023-04-03T16:16:00;4.30;81.70
24802;DHT22;12898;50.520;12.152;2023-04-03T16:18:27;4.30;83.80
24802;DHT22;12898;50.520;12.152;2023-04-03T16:20:53;4.30;83.10
24802;DHT22;12898;50.520;12.152;2023-04-03T16:23:19;4.20;83.70
24802;DHT22;12898;50.520;12.152;2023-04-03T16:25:44;4.10;83.00
24802;DHT22;12898;50.520;12.152;2023-04-03T16:28:13;4.10;86.90
24802;DHT22;12898;50.520;12.152;2023-04-03T16:30:40;4.00;85.50
24802;DHT22;12898;50.520;12.152;2023-04-03T16:33:06;3.90;88.00
24802;DHT22;12898;50.520;12.152;2023-04-03T16:35:32;3.90;85.10
24802;DHT22;12898;50.520;12.152;2023-04-03T16:37:58;3.90;87.20
24802;DHT22;12898;50.520;12.152;2023-04-03T16:40:23;3.80;86.30
24802;DHT22;12898;50.520;12.152;2023-04-03T16:42:49;3.70;89.00
24802;DHT22;12898;50.520;12.152;2023-04-03T16:45:15;3.70;85.00
24802;DHT22;12898;50.520;12.152;2023-04-03T16:47:41;3.60;89.80
24802;DHT22;12898;50.520;12.152;2023-04-03T16:50:07;3.50;86.90
24802;DHT22;12898;50.520;12.152;2023-04-03T16:52:33;3.40;89.50
24802;DHT22;12898;50.520;12.152;2023-04-03T16:54:59;3.30;89.80
24802;DHT22;12898;50.520;12.152;2023-04-03T16:57:24;3.30;91.50
24802;DHT22;12898;50.520;12.152;2023-04-03T16:59:51;3.30;91.70
24802;DHT22;12898;50.520;12.152;2023-04-03T17:02:18;3.30;91.90
24802;DHT22;12898;50.520;12.152;2023-04-03T17:04:44;3.20;91.80
24802;DHT22;12898;50.520;12.152;2023-04-03T17:07:10;3.20;91.40
24802;DHT22;12898;50.520;12.152;2023-04-03T17:09:36;3.10;91.90
24802;DHT22;12898;50.520;12.152;2023-04-03T17:12:02;3.00;91.60
24802;DHT22;12898;50.520;12.152;2023-04-03T17:14:28;3.00;93.10
24802;DHT22;12898;50.520;12.152;2023-04-03T17:16:53;2.90;93.50
24802;DHT22;12898;50.520;12.152;2023-04-03T17:19:19;2.90;94.10
24802;DHT22;12898;50.520;12.152;2023-04-03T17:21:45;2.80;90.40
24802;DHT22;12898;50.520;12.152;2023-04-03T17:24:12;2.70;93.60
24802;DHT22;12898;50.520;12.152;2023-04-03T17:26:40;2.70;92.20
24802;DHT22;12898;50.520;12.152;2023-04-03T17:29:06;2.60;92.40